This is the latest recevied weather packets stored in our database for station/object N8XE-13. If no packets are shown the sender has not sent any weather packets the latest 10 day(s).
| Time | Temp. | Humidity | Pressure | Rain* | Wind** | Luminosity | Snow |
|---|---|---|---|---|---|---|---|
| 1777926819 | 21.11° C | 57% | - | 0 mm | - | - | - |
| 1777926514 | 21.11° C | 57% | - | 0 mm | - | - | - |
| 1777926212 | 21.11° C | 58% | - | 0 mm | - | - | - |
| 1777925908 | 21.67° C | 58% | - | 0 mm | - | - | - |
| 1777925606 | 21.67° C | 57% | - | 0 mm | - | - | - |
| 1777925303 | 22.22° C | 55% | - | 0 mm | - | - | - |
| 1777925000 | 21.67° C | 56% | - | 0 mm | - | - | - |
| 1777924696 | 21.67° C | 55% | - | 0 mm | - | - | - |
| 1777924392 | 21.67° C | 55% | - | 0 mm | - | - | - |
| 1777924089 | 22.22° C | 54% | - | 0 mm | - | - | - |
| 1777923785 | 23.89° C | 51% | - | 0 mm | - | - | - |
| 1777923481 | 23.89° C | 49% | - | 0 mm | - | - | - |
| 1777923179 | 23.89° C | 50% | - | 0 mm | - | - | - |
| 1777922877 | 23.89° C | 50% | - | 0 mm | - | - | - |
| 1777922575 | 23.33° C | 49% | - | 0 mm | - | - | - |
| 1777922273 | 23.33° C | 50% | - | 0 mm | - | - | - |
| 1777921970 | 23.89° C | 49% | - | 0 mm | - | - | - |
| 1777921665 | 23.33° C | 50% | - | 0 mm | - | - | - |
| 1777921362 | 24.44° C | 49% | - | 0 mm | - | - | - |
| 1777921058 | 23.89° C | 49% | - | 0 mm | - | - | - |
| 1777920755 | 23.33° C | 51% | - | 0 mm | - | - | - |
| 1777920451 | 23.89° C | 50% | - | 0 mm | - | - | - |
| 1777920147 | 23.89° C | 48% | - | 0 mm | - | - | - |
| 1777919843 | 23.89° C | 48% | - | 0 mm | - | - | - |
| 1777919540 | 23.89° C | 49% | - | 0 mm | - | - | - |
* Rain latest hour (hover to see other rain measurements)
** Current wind speed in m/s (hover to see current wind gust speed)